SBCJ/CKS METAR and TAF weather

Enter ICAO airport designator
Station Type Date Time Source
SBCJ METAR 2018/12/18 21:00 UTC NOAA

SBCJ 182100Z 10002KT CAVOK 25/21 Q1015


Station Type Date Time Source
SBCJ Decoded METAR 2018/12/18 21:00 UTC NOAA

Carajas / Maraba, Brazil (SBCJ) 06-07S 050-00W
Dec 18, 2018 - 04:00 PM EST / 2018.12.18 2100 UTC
Wind: from the E (100 degrees) at 2 MPH (2 KT):0
Visibility: greater than 7 mile(s):0
Temperature: 77 F (25 C)
Dew Point: 69 F (21 C)
Relative Humidity: 78%
Pressure (altimeter): 29.97 in. Hg (1015 hPa)
ob: SBCJ 182100Z 10002KT CAVOK 25/21 Q1015
cycle: 21

Station Type Date Time Source
SBCJ TAF 2018/12/19 00:00 UTC NOAA

TAF SBCJ 182200Z 1900/1912 00000KT CAVOK TN23/1907Z TX26/1912Z
BECMG 1905/1907 07008KT 9999 SCT010 PROB30 1907/1912 3000 BR BKN006
RMK PEN


Example: see airport list